sensor_id;sensor_type;location;lat;lon;timestamp;P1;durP1;ratioP1;P2;durP2;ratioP2
19782;SDS011;10051;40.294;-3.754;2023-03-14T00:01:07;5.38;;;1.40;;
19782;SDS011;10051;40.294;-3.754;2023-03-14T00:03:37;5.63;;;1.40;;
19782;SDS011;10051;40.294;-3.754;2023-03-14T00:06:03;7.13;;;1.50;;
19782;SDS011;10051;40.294;-3.754;2023-03-14T00:08:29;5.38;;;1.27;;
19782;SDS011;10051;40.294;-3.754;2023-03-14T00:10:55;4.95;;;1.05;;
19782;SDS011;10051;40.294;-3.754;2023-03-14T00:13:23;8.43;;;1.70;;
19782;SDS011;10051;40.294;-3.754;2023-03-14T00:15:49;7.40;;;1.40;;
19782;SDS011;10051;40.294;-3.754;2023-03-14T00:18:14;6.70;;;1.30;;
19782;SDS011;10051;40.294;-3.754;2023-03-14T00:20:40;6.10;;;1.23;;
19782;SDS011;10051;40.294;-3.754;2023-03-14T00:23:06;6.20;;;1.45;;
19782;SDS011;10051;40.294;-3.754;2023-03-14T00:25:32;6.82;;;1.38;;
19782;SDS011;10051;40.294;-3.754;2023-03-14T00:27:57;6.72;;;1.40;;
19782;SDS011;10051;40.294;-3.754;2023-03-14T00:30:23;8.70;;;1.35;;
19782;SDS011;10051;40.294;-3.754;2023-03-14T00:32:48;8.07;;;1.55;;
19782;SDS011;10051;40.294;-3.754;2023-03-14T00:35:14;7.20;;;1.30;;
19782;SDS011;10051;40.294;-3.754;2023-03-14T00:37:40;6.65;;;1.27;;
19782;SDS011;10051;40.294;-3.754;2023-03-14T00:40:06;4.55;;;1.05;;
19782;SDS011;10051;40.294;-3.754;2023-03-14T00:42:33;9.30;;;1.67;;
19782;SDS011;10051;40.294;-3.754;2023-03-14T00:44:58;4.53;;;1.13;;
19782;SDS011;10051;40.294;-3.754;2023-03-14T00:47:24;7.90;;;1.40;;
19782;SDS011;10051;40.294;-3.754;2023-03-14T00:49:50;5.70;;;1.40;;
19782;SDS011;10051;40.294;-3.754;2023-03-14T00:52:15;6.18;;;1.30;;
19782;SDS011;10051;40.294;-3.754;2023-03-14T00:54:41;5.88;;;1.40;;
19782;SDS011;10051;40.294;-3.754;2023-03-14T00:57:07;8.07;;;1.40;;
19782;SDS011;10051;40.294;-3.754;2023-03-14T00:59:32;5.82;;;1.30;;
19782;SDS011;10051;40.294;-3.754;2023-03-14T01:01:58;7.18;;;1.48;;
19782;SDS011;10051;40.294;-3.754;2023-03-14T01:04:24;7.20;;;1.40;;
19782;SDS011;10051;40.294;-3.754;2023-03-14T01:06:50;7.85;;;1.45;;
19782;SDS011;10051;40.294;-3.754;2023-03-14T01:09:15;6.20;;;1.33;;
19782;SDS011;10051;40.294;-3.754;2023-03-14T01:11:42;9.70;;;1.38;;
19782;SDS011;10051;40.294;-3.754;2023-03-14T01:14:11;8.85;;;1.58;;
19782;SDS011;10051;40.294;-3.754;2023-03-14T01:16:37;5.97;;;1.20;;
19782;SDS011;10051;40.294;-3.754;2023-03-14T01:19:03;6.00;;;1.13;;
19782;SDS011;10051;40.294;-3.754;2023-03-14T01:21:32;9.60;;;1.48;;
19782;SDS011;10051;40.294;-3.754;2023-03-14T01:24:00;9.20;;;1.60;;
19782;SDS011;10051;40.294;-3.754;2023-03-14T01:26:27;8.75;;;1.40;;
19782;SDS011;10051;40.294;-3.754;2023-03-14T01:28:56;9.82;;;1.60;;
19782;SDS011;10051;40.294;-3.754;2023-03-14T01:31:22;8.60;;;1.40;;
19782;SDS011;10051;40.294;-3.754;2023-03-14T01:33:49;6.68;;;1.35;;
19782;SDS011;10051;40.294;-3.754;2023-03-14T01:36:16;6.38;;;1.30;;
19782;SDS011;10051;40.294;-3.754;2023-03-14T01:38:41;5.65;;;1.30;;
19782;SDS011;10051;40.294;-3.754;2023-03-14T01:41:08;7.28;;;1.40;;
19782;SDS011;10051;40.294;-3.754;2023-03-14T01:43:40;8.05;;;1.50;;
19782;SDS011;10051;40.294;-3.754;2023-03-14T01:51:16;7.28;;;1.38;;
19782;SDS011;10051;40.294;-3.754;2023-03-14T01:53:46;5.72;;;1.10;;
19782;SDS011;10051;40.294;-3.754;2023-03-14T01:56:15;5.43;;;1.38;;
19782;SDS011;10051;40.294;-3.754;2023-03-14T01:58:44;5.22;;;1.10;;
19782;SDS011;10051;40.294;-3.754;2023-03-14T02:01:14;4.40;;;1.30;;
19782;SDS011;10051;40.294;-3.754;2023-03-14T02:03:56;8.35;;;1.63;;
19782;SDS011;10051;40.294;-3.754;2023-03-14T02:06:27;8.13;;;1.40;;
19782;SDS011;10051;40.294;-3.754;2023-03-14T02:08:59;9.30;;;1.27;;
19782;SDS011;10051;40.294;-3.754;2023-03-14T02:11:26;8.00;;;1.33;;
19782;SDS011;10051;40.294;-3.754;2023-03-14T02:13:55;10.77;;;1.50;;
19782;SDS011;10051;40.294;-3.754;2023-03-14T02:16:23;6.28;;;1.23;;
19782;SDS011;10051;40.294;-3.754;2023-03-14T02:18:49;7.45;;;1.38;;
19782;SDS011;10051;40.294;-3.754;2023-03-14T02:27:20;7.68;;;1.35;;
19782;SDS011;10051;40.294;-3.754;2023-03-14T02:30:05;7.00;;;1.30;;
19782;SDS011;10051;40.294;-3.754;2023-03-14T02:32:46;7.80;;;1.23;;
19782;SDS011;10051;40.294;-3.754;2023-03-14T02:35:21;3.92;;;1.00;;
19782;SDS011;10051;40.294;-3.754;2023-03-14T02:37:53;7.32;;;1.45;;
19782;SDS011;10051;40.294;-3.754;2023-03-14T02:40:26;5.15;;;1.20;;
19782;SDS011;10051;40.294;-3.754;2023-03-14T02:42:52;8.68;;;1.50;;
19782;SDS011;10051;40.294;-3.754;2023-03-14T02:47:44;6.57;;;1.15;;
19782;SDS011;10051;40.294;-3.754;2023-03-14T02:50:16;8.20;;;1.40;;
19782;SDS011;10051;40.294;-3.754;2023-03-14T02:52:45;4.65;;;1.27;;
19782;SDS011;10051;40.294;-3.754;2023-03-14T02:55:11;5.63;;;1.17;;
19782;SDS011;10051;40.294;-3.754;2023-03-14T02:57:37;6.22;;;1.30;;
19782;SDS011;10051;40.294;-3.754;2023-03-14T03:00:03;6.50;;;1.40;;
19782;SDS011;10051;40.294;-3.754;2023-03-14T03:02:32;8.55;;;1.23;;
19782;SDS011;10051;40.294;-3.754;2023-03-14T03:04:58;9.68;;;1.60;;
19782;SDS011;10051;40.294;-3.754;2023-03-14T03:07:23;6.20;;;1.42;;
19782;SDS011;10051;40.294;-3.754;2023-03-14T03:09:49;8.90;;;1.30;;
19782;SDS011;10051;40.294;-3.754;2023-03-14T03:12:15;7.53;;;1.30;;
19782;SDS011;10051;40.294;-3.754;2023-03-14T03:14:41;6.45;;;1.30;;
19782;SDS011;10051;40.294;-3.754;2023-03-14T03:17:06;8.95;;;1.50;;
19782;SDS011;10051;40.294;-3.754;2023-03-14T03:19:32;5.15;;;1.10;;
19782;SDS011;10051;40.294;-3.754;2023-03-14T03:21:59;8.40;;;1.52;;
19782;SDS011;10051;40.294;-3.754;2023-03-14T03:24:25;6.53;;;1.52;;
19782;SDS011;10051;40.294;-3.754;2023-03-14T03:26:51;6.10;;;1.25;;
19782;SDS011;10051;40.294;-3.754;2023-03-14T03:29:17;6.45;;;1.23;;
19782;SDS011;10051;40.294;-3.754;2023-03-14T03:31:43;7.35;;;1.33;;
19782;SDS011;10051;40.294;-3.754;2023-03-14T03:34:10;6.90;;;1.40;;
19782;SDS011;10051;40.294;-3.754;2023-03-14T03:36:37;5.72;;;1.20;;
19782;SDS011;10051;40.294;-3.754;2023-03-14T03:39:03;9.35;;;1.40;;
19782;SDS011;10051;40.294;-3.754;2023-03-14T03:41:29;4.82;;;1.20;;
19782;SDS011;10051;40.294;-3.754;2023-03-14T03:43:55;5.78;;;1.40;;
19782;SDS011;10051;40.294;-3.754;2023-03-14T03:46:21;8.45;;;1.08;;
19782;SDS011;10051;40.294;-3.754;2023-03-14T03:48:47;6.40;;;1.23;;
19782;SDS011;10051;40.294;-3.754;2023-03-14T03:51:13;6.50;;;1.55;;
19782;SDS011;10051;40.294;-3.754;2023-03-14T03:53:40;5.90;;;1.40;;
19782;SDS011;10051;40.294;-3.754;2023-03-14T03:56:06;7.28;;;1.30;;
19782;SDS011;10051;40.294;-3.754;2023-03-14T03:58:32;8.40;;;1.30;;
19782;SDS011;10051;40.294;-3.754;2023-03-14T04:00:58;6.72;;;1.42;;
19782;SDS011;10051;40.294;-3.754;2023-03-14T04:03:24;7.25;;;1.20;;
19782;SDS011;10051;40.294;-3.754;2023-03-14T04:06:07;4.55;;;1.10;;
19782;SDS011;10051;40.294;-3.754;2023-03-14T04:08:38;7.03;;;1.20;;
19782;SDS011;10051;40.294;-3.754;2023-03-14T04:11:05;6.93;;;1.40;;
19782;SDS011;10051;40.294;-3.754;2023-03-14T04:13:31;7.35;;;1.65;;
19782;SDS011;10051;40.294;-3.754;2023-03-14T04:15:57;8.82;;;1.27;;
19782;SDS011;10051;40.294;-3.754;2023-03-14T04:18:23;8.43;;;1.48;;
19782;SDS011;10051;40.294;-3.754;2023-03-14T04:20:53;4.18;;;1.20;;
19782;SDS011;10051;40.294;-3.754;2023-03-14T04:23:20;7.05;;;1.35;;
19782;SDS011;10051;40.294;-3.754;2023-03-14T04:25:49;5.63;;;1.10;;
19782;SDS011;10051;40.294;-3.754;2023-03-14T04:28:16;5.13;;;1.10;;
19782;SDS011;10051;40.294;-3.754;2023-03-14T04:30:41;8.93;;;1.40;;
19782;SDS011;10051;40.294;-3.754;2023-03-14T04:33:07;7.57;;;1.20;;
19782;SDS011;10051;40.294;-3.754;2023-03-14T04:35:34;4.97;;;1.10;;
19782;SDS011;10051;40.294;-3.754;2023-03-14T04:38:00;6.30;;;1.40;;
19782;SDS011;10051;40.294;-3.754;2023-03-14T04:40:25;4.13;;;0.98;;
19782;SDS011;10051;40.294;-3.754;2023-03-14T04:42:51;4.88;;;1.20;;
19782;SDS011;10051;40.294;-3.754;2023-03-14T04:45:17;7.60;;;1.33;;
19782;SDS011;10051;40.294;-3.754;2023-03-14T04:47:43;8.88;;;1.40;;
19782;SDS011;10051;40.294;-3.754;2023-03-14T04:50:09;8.15;;;1.30;;
19782;SDS011;10051;40.294;-3.754;2023-03-14T04:52:35;4.90;;;1.10;;
19782;SDS011;10051;40.294;-3.754;2023-03-14T04:55:01;8.10;;;1.20;;
19782;SDS011;10051;40.294;-3.754;2023-03-14T04:57:27;6.47;;;1.15;;
19782;SDS011;10051;40.294;-3.754;2023-03-14T04:59:52;6.95;;;1.23;;
19782;SDS011;10051;40.294;-3.754;2023-03-14T05:02:18;3.58;;;1.00;;
19782;SDS011;10051;40.294;-3.754;2023-03-14T05:04:44;6.85;;;1.10;;
19782;SDS011;10051;40.294;-3.754;2023-03-14T05:07:09;5.95;;;1.08;;
19782;SDS011;10051;40.294;-3.754;2023-03-14T05:09:35;5.80;;;1.20;;
19782;SDS011;10051;40.294;-3.754;2023-03-14T05:12:01;5.07;;;1.20;;
19782;SDS011;10051;40.294;-3.754;2023-03-14T05:14:26;5.18;;;1.27;;
19782;SDS011;10051;40.294;-3.754;2023-03-14T05:16:52;6.57;;;0.98;;
19782;SDS011;10051;40.294;-3.754;2023-03-14T05:19:18;6.38;;;1.45;;
19782;SDS011;10051;40.294;-3.754;2023-03-14T05:21:43;8.23;;;1.23;;
19782;SDS011;10051;40.294;-3.754;2023-03-14T05:24:09;7.65;;;1.40;;
19782;SDS011;10051;40.294;-3.754;2023-03-14T05:26:34;5.55;;;1.33;;
19782;SDS011;10051;40.294;-3.754;2023-03-14T05:29:00;4.57;;;1.30;;
19782;SDS011;10051;40.294;-3.754;2023-03-14T05:31:26;6.47;;;1.25;;
19782;SDS011;10051;40.294;-3.754;2023-03-14T05:33:51;9.38;;;1.27;;
19782;SDS011;10051;40.294;-3.754;2023-03-14T05:36:17;5.75;;;1.20;;
19782;SDS011;10051;40.294;-3.754;2023-03-14T05:38:42;6.10;;;1.52;;
19782;SDS011;10051;40.294;-3.754;2023-03-14T05:41:08;5.80;;;1.02;;
19782;SDS011;10051;40.294;-3.754;2023-03-14T05:43:34;6.25;;;1.10;;
19782;SDS011;10051;40.294;-3.754;2023-03-14T05:45:59;4.40;;;1.17;;
19782;SDS011;10051;40.294;-3.754;2023-03-14T05:48:25;7.68;;;1.20;;
19782;SDS011;10051;40.294;-3.754;2023-03-14T05:50:54;4.75;;;1.30;;
19782;SDS011;10051;40.294;-3.754;2023-03-14T05:53:21;6.20;;;1.10;;
19782;SDS011;10051;40.294;-3.754;2023-03-14T05:55:47;6.47;;;1.35;;
19782;SDS011;10051;40.294;-3.754;2023-03-14T05:58:12;6.35;;;1.30;;
19782;SDS011;10051;40.294;-3.754;2023-03-14T06:00:38;12.57;;;1.33;;
19782;SDS011;10051;40.294;-3.754;2023-03-14T06:03:03;5.95;;;1.10;;
19782;SDS011;10051;40.294;-3.754;2023-03-14T06:05:29;8.80;;;1.52;;
19782;SDS011;10051;40.294;-3.754;2023-03-14T06:07:55;7.50;;;1.20;;
19782;SDS011;10051;40.294;-3.754;2023-03-14T06:10:20;7.75;;;1.50;;
19782;SDS011;10051;40.294;-3.754;2023-03-14T06:12:46;7.85;;;1.55;;
19782;SDS011;10051;40.294;-3.754;2023-03-14T06:15:11;8.25;;;1.45;;
19782;SDS011;10051;40.294;-3.754;2023-03-14T06:17:37;7.60;;;1.45;;
19782;SDS011;10051;40.294;-3.754;2023-03-14T06:20:03;7.85;;;1.73;;
19782;SDS011;10051;40.294;-3.754;2023-03-14T06:22:29;9.13;;;1.27;;
19782;SDS011;10051;40.294;-3.754;2023-03-14T06:24:54;7.30;;;1.33;;
19782;SDS011;10051;40.294;-3.754;2023-03-14T06:27:20;5.80;;;1.25;;
19782;SDS011;10051;40.294;-3.754;2023-03-14T06:29:45;8.20;;;1.65;;
19782;SDS011;10051;40.294;-3.754;2023-03-14T06:32:11;9.60;;;1.40;;
19782;SDS011;10051;40.294;-3.754;2023-03-14T06:34:37;5.35;;;1.27;;
19782;SDS011;10051;40.294;-3.754;2023-03-14T06:37:03;11.05;;;1.48;;
19782;SDS011;10051;40.294;-3.754;2023-03-14T06:39:29;7.82;;;1.60;;
19782;SDS011;10051;40.294;-3.754;2023-03-14T06:41:56;6.35;;;1.20;;
19782;SDS011;10051;40.294;-3.754;2023-03-14T06:44:21;6.28;;;1.33;;
19782;SDS011;10051;40.294;-3.754;2023-03-14T06:46:47;10.20;;;1.65;;
19782;SDS011;10051;40.294;-3.754;2023-03-14T06:49:13;7.50;;;1.52;;
19782;SDS011;10051;40.294;-3.754;2023-03-14T06:51:39;6.53;;;1.30;;
19782;SDS011;10051;40.294;-3.754;2023-03-14T06:54:04;8.15;;;1.40;;
19782;SDS011;10051;40.294;-3.754;2023-03-14T06:56:30;6.50;;;1.33;;
19782;SDS011;10051;40.294;-3.754;2023-03-14T06:58:55;8.88;;;1.50;;
19782;SDS011;10051;40.294;-3.754;2023-03-14T07:01:25;8.75;;;1.52;;
19782;SDS011;10051;40.294;-3.754;2023-03-14T07:03:53;14.40;;;1.92;;
19782;SDS011;10051;40.294;-3.754;2023-03-14T07:06:18;11.43;;;1.67;;
19782;SDS011;10051;40.294;-3.754;2023-03-14T07:08:46;8.82;;;1.60;;
19782;SDS011;10051;40.294;-3.754;2023-03-14T07:11:11;7.43;;;1.70;;
19782;SDS011;10051;40.294;-3.754;2023-03-14T07:13:38;7.63;;;1.65;;
19782;SDS011;10051;40.294;-3.754;2023-03-14T07:16:04;5.50;;;1.30;;
19782;SDS011;10051;40.294;-3.754;2023-03-14T07:18:31;8.43;;;1.30;;
19782;SDS011;10051;40.294;-3.754;2023-03-14T07:20:56;7.93;;;1.50;;
19782;SDS011;10051;40.294;-3.754;2023-03-14T07:23:22;3.97;;;1.10;;
19782;SDS011;10051;40.294;-3.754;2023-03-14T07:25:47;8.07;;;1.50;;
19782;SDS011;10051;40.294;-3.754;2023-03-14T07:28:13;7.00;;;1.60;;
19782;SDS011;10051;40.294;-3.754;2023-03-14T07:30:39;7.95;;;1.27;;
19782;SDS011;10051;40.294;-3.754;2023-03-14T07:33:04;7.93;;;1.33;;
19782;SDS011;10051;40.294;-3.754;2023-03-14T07:35:30;5.18;;;1.10;;
19782;SDS011;10051;40.294;-3.754;2023-03-14T07:37:56;6.50;;;1.17;;
19782;SDS011;10051;40.294;-3.754;2023-03-14T07:40:21;5.45;;;1.40;;
19782;SDS011;10051;40.294;-3.754;2023-03-14T07:42:47;4.93;;;1.17;;
19782;SDS011;10051;40.294;-3.754;2023-03-14T07:45:13;8.15;;;1.40;;
19782;SDS011;10051;40.294;-3.754;2023-03-14T07:47:39;6.50;;;1.20;;
19782;SDS011;10051;40.294;-3.754;2023-03-14T07:50:04;4.95;;;1.45;;
19782;SDS011;10051;40.294;-3.754;2023-03-14T07:52:31;6.97;;;1.50;;
19782;SDS011;10051;40.294;-3.754;2023-03-14T07:54:56;6.50;;;1.33;;
19782;SDS011;10051;40.294;-3.754;2023-03-14T07:57:22;7.13;;;1.45;;
19782;SDS011;10051;40.294;-3.754;2023-03-14T07:59:49;7.13;;;1.10;;
19782;SDS011;10051;40.294;-3.754;2023-03-14T08:02:15;7.55;;;1.20;;
19782;SDS011;10051;40.294;-3.754;2023-03-14T08:04:41;5.82;;;1.27;;
19782;SDS011;10051;40.294;-3.754;2023-03-14T08:07:06;9.88;;;1.58;;
19782;SDS011;10051;40.294;-3.754;2023-03-14T08:09:32;7.03;;;1.15;;
19782;SDS011;10051;40.294;-3.754;2023-03-14T08:11:57;16.52;;;2.00;;
19782;SDS011;10051;40.294;-3.754;2023-03-14T08:14:23;5.57;;;1.65;;
19782;SDS011;10051;40.294;-3.754;2023-03-14T08:16:49;8.38;;;1.70;;
19782;SDS011;10051;40.294;-3.754;2023-03-14T08:19:16;6.45;;;1.50;;
19782;SDS011;10051;40.294;-3.754;2023-03-14T08:21:42;8.57;;;1.70;;
19782;SDS011;10051;40.294;-3.754;2023-03-14T08:24:07;6.45;;;1.40;;
19782;SDS011;10051;40.294;-3.754;2023-03-14T08:26:33;4.80;;;1.30;;
19782;SDS011;10051;40.294;-3.754;2023-03-14T08:28:59;10.40;;;1.52;;
19782;SDS011;10051;40.294;-3.754;2023-03-14T08:31:25;8.68;;;1.48;;
19782;SDS011;10051;40.294;-3.754;2023-03-14T08:33:50;13.20;;;1.45;;
19782;SDS011;10051;40.294;-3.754;2023-03-14T08:36:17;17.98;;;2.00;;
19782;SDS011;10051;40.294;-3.754;2023-03-14T08:38:44;121.43;;;6.95;;
19782;SDS011;10051;40.294;-3.754;2023-03-14T08:41:10;45.42;;;4.20;;
19782;SDS011;10051;40.294;-3.754;2023-03-14T08:43:35;13.25;;;1.67;;
19782;SDS011;10051;40.294;-3.754;2023-03-14T08:46:01;64.22;;;5.22;;
19782;SDS011;10051;40.294;-3.754;2023-03-14T08:48:28;20.02;;;1.90;;
19782;SDS011;10051;40.294;-3.754;2023-03-14T08:50:56;12.30;;;1.40;;
19782;SDS011;10051;40.294;-3.754;2023-03-14T08:53:22;7.25;;;1.05;;
19782;SDS011;10051;40.294;-3.754;2023-03-14T08:55:52;9.80;;;1.58;;
19782;SDS011;10051;40.294;-3.754;2023-03-14T08:58:19;8.75;;;1.60;;
19782;SDS011;10051;40.294;-3.754;2023-03-14T09:00:44;6.78;;;1.42;;
19782;SDS011;10051;40.294;-3.754;2023-03-14T09:03:10;5.67;;;1.20;;
19782;SDS011;10051;40.294;-3.754;2023-03-14T09:05:35;5.63;;;1.33;;
19782;SDS011;10051;40.294;-3.754;2023-03-14T09:08:01;6.57;;;1.50;;
19782;SDS011;10051;40.294;-3.754;2023-03-14T09:10:27;7.43;;;1.20;;
19782;SDS011;10051;40.294;-3.754;2023-03-14T09:12:53;5.68;;;1.05;;
19782;SDS011;10051;40.294;-3.754;2023-03-14T09:15:19;7.20;;;1.10;;
19782;SDS011;10051;40.294;-3.754;2023-03-14T09:17:44;3.53;;;0.88;;
19782;SDS011;10051;40.294;-3.754;2023-03-14T09:20:10;7.83;;;1.50;;
19782;SDS011;10051;40.294;-3.754;2023-03-14T09:22:36;7.05;;;1.02;;
19782;SDS011;10051;40.294;-3.754;2023-03-14T09:25:02;4.70;;;1.10;;
19782;SDS011;10051;40.294;-3.754;2023-03-14T09:27:29;5.78;;;1.30;;
19782;SDS011;10051;40.294;-3.754;2023-03-14T09:29:54;5.15;;;1.10;;
19782;SDS011;10051;40.294;-3.754;2023-03-14T09:32:20;3.25;;;1.20;;
19782;SDS011;10051;40.294;-3.754;2023-03-14T09:34:45;8.55;;;1.20;;
19782;SDS011;10051;40.294;-3.754;2023-03-14T09:37:11;3.85;;;1.13;;
19782;SDS011;10051;40.294;-3.754;2023-03-14T09:39:37;5.37;;;1.30;;
19782;SDS011;10051;40.294;-3.754;2023-03-14T09:42:04;4.22;;;1.10;;
19782;SDS011;10051;40.294;-3.754;2023-03-14T09:44:33;3.90;;;0.93;;
19782;SDS011;10051;40.294;-3.754;2023-03-14T09:47:05;3.92;;;0.90;;
19782;SDS011;10051;40.294;-3.754;2023-03-14T09:49:36;5.40;;;0.85;;
19782;SDS011;10051;40.294;-3.754;2023-03-14T09:54:53;3.72;;;1.00;;
19782;SDS011;10051;40.294;-3.754;2023-03-14T09:57:26;4.28;;;1.00;;
19782;SDS011;10051;40.294;-3.754;2023-03-14T09:59:53;6.10;;;1.08;;
19782;SDS011;10051;40.294;-3.754;2023-03-14T10:02:28;3.25;;;0.80;;
19782;SDS011;10051;40.294;-3.754;2023-03-14T10:04:59;5.05;;;0.80;;
19782;SDS011;10051;40.294;-3.754;2023-03-14T10:07:29;3.80;;;0.70;;
19782;SDS011;10051;40.294;-3.754;2023-03-14T10:09:56;3.00;;;0.95;;
19782;SDS011;10051;40.294;-3.754;2023-03-14T10:12:32;4.07;;;0.90;;
19782;SDS011;10051;40.294;-3.754;2023-03-14T10:15:02;2.92;;;0.95;;
19782;SDS011;10051;40.294;-3.754;2023-03-14T10:17:38;3.95;;;0.85;;
19782;SDS011;10051;40.294;-3.754;2023-03-14T10:20:25;4.07;;;0.90;;
19782;SDS011;10051;40.294;-3.754;2023-03-14T10:25:40;6.45;;;0.80;;
19782;SDS011;10051;40.294;-3.754;2023-03-14T10:28:22;4.57;;;0.93;;
19782;SDS011;10051;40.294;-3.754;2023-03-14T10:30:49;3.95;;;0.80;;
19782;SDS011;10051;40.294;-3.754;2023-03-14T10:35:43;3.17;;;1.00;;
19782;SDS011;10051;40.294;-3.754;2023-03-14T10:38:14;5.05;;;1.20;;
19782;SDS011;10051;40.294;-3.754;2023-03-14T10:40:46;6.25;;;0.90;;
19782;SDS011;10051;40.294;-3.754;2023-03-14T10:43:16;4.57;;;1.02;;
19782;SDS011;10051;40.294;-3.754;2023-03-14T10:45:51;4.30;;;1.00;;
19782;SDS011;10051;40.294;-3.754;2023-03-14T10:48:43;7.72;;;1.00;;
19782;SDS011;10051;40.294;-3.754;2023-03-14T10:51:12;3.67;;;1.10;;
19782;SDS011;10051;40.294;-3.754;2023-03-14T10:53:46;6.43;;;0.90;;
19782;SDS011;10051;40.294;-3.754;2023-03-14T10:56:20;6.13;;;1.15;;
19782;SDS011;10051;40.294;-3.754;2023-03-14T10:58:48;5.65;;;1.17;;
19782;SDS011;10051;40.294;-3.754;2023-03-14T18:46:29;8.70;;;1.40;;
19782;SDS011;10051;40.294;-3.754;2023-03-14T19:23:26;6.88;;;1.15;;
19782;SDS011;10051;40.294;-3.754;2023-03-14T19:25:52;6.00;;;1.40;;
19782;SDS011;10051;40.294;-3.754;2023-03-14T19:28:19;5.78;;;1.60;;
19782;SDS011;10051;40.294;-3.754;2023-03-14T19:30:45;7.55;;;1.52;;
19782;SDS011;10051;40.294;-3.754;2023-03-14T19:33:12;9.88;;;1.50;;
19782;SDS011;10051;40.294;-3.754;2023-03-14T19:35:39;7.50;;;1.60;;
19782;SDS011;10051;40.294;-3.754;2023-03-14T19:38:08;8.07;;;1.60;;
19782;SDS011;10051;40.294;-3.754;2023-03-14T19:40:37;9.35;;;1.80;;
19782;SDS011;10051;40.294;-3.754;2023-03-14T19:43:04;7.68;;;1.50;;
19782;SDS011;10051;40.294;-3.754;2023-03-14T19:45:30;7.20;;;1.65;;
19782;SDS011;10051;40.294;-3.754;2023-03-14T19:48:00;11.80;;;1.70;;
19782;SDS011;10051;40.294;-3.754;2023-03-14T19:50:27;6.75;;;1.55;;
19782;SDS011;10051;40.294;-3.754;2023-03-14T19:52:53;6.70;;;1.52;;
19782;SDS011;10051;40.294;-3.754;2023-03-14T19:55:20;7.75;;;1.67;;
19782;SDS011;10051;40.294;-3.754;2023-03-14T19:57:47;10.20;;;1.67;;
19782;SDS011;10051;40.294;-3.754;2023-03-14T20:00:13;9.27;;;1.65;;
19782;SDS011;10051;40.294;-3.754;2023-03-14T20:02:46;6.18;;;1.75;;
19782;SDS011;10051;40.294;-3.754;2023-03-14T20:05:13;8.30;;;2.00;;
19782;SDS011;10051;40.294;-3.754;2023-03-14T20:07:40;7.82;;;1.63;;
19782;SDS011;10051;40.294;-3.754;2023-03-14T20:10:07;7.93;;;1.60;;
19782;SDS011;10051;40.294;-3.754;2023-03-14T20:12:33;9.20;;;2.00;;
19782;SDS011;10051;40.294;-3.754;2023-03-14T20:14:59;9.20;;;1.90;;
19782;SDS011;10051;40.294;-3.754;2023-03-14T20:17:26;7.78;;;1.90;;
19782;SDS011;10051;40.294;-3.754;2023-03-14T20:19:52;5.00;;;1.50;;
19782;SDS011;10051;40.294;-3.754;2023-03-14T20:22:17;10.48;;;1.80;;
19782;SDS011;10051;40.294;-3.754;2023-03-14T20:24:43;7.72;;;1.63;;
19782;SDS011;10051;40.294;-3.754;2023-03-14T20:27:09;7.68;;;1.80;;
19782;SDS011;10051;40.294;-3.754;2023-03-14T20:29:35;6.50;;;1.65;;
19782;SDS011;10051;40.294;-3.754;2023-03-14T20:32:00;10.85;;;1.65;;
19782;SDS011;10051;40.294;-3.754;2023-03-14T20:34:26;7.95;;;1.60;;
19782;SDS011;10051;40.294;-3.754;2023-03-14T20:36:51;8.63;;;2.10;;
19782;SDS011;10051;40.294;-3.754;2023-03-14T20:39:17;7.57;;;2.03;;
19782;SDS011;10051;40.294;-3.754;2023-03-14T20:41:44;10.57;;;2.20;;
19782;SDS011;10051;40.294;-3.754;2023-03-14T20:44:10;11.00;;;2.10;;
19782;SDS011;10051;40.294;-3.754;2023-03-14T20:46:37;9.10;;;2.50;;
19782;SDS011;10051;40.294;-3.754;2023-03-14T20:49:06;10.18;;;2.90;;
19782;SDS011;10051;40.294;-3.754;2023-03-14T20:51:32;10.85;;;3.40;;
19782;SDS011;10051;40.294;-3.754;2023-03-14T20:53:57;11.43;;;3.50;;
19782;SDS011;10051;40.294;-3.754;2023-03-14T20:56:23;12.13;;;3.95;;
19782;SDS011;10051;40.294;-3.754;2023-03-14T20:58:49;15.38;;;3.85;;
19782;SDS011;10051;40.294;-3.754;2023-03-14T21:01:15;14.02;;;3.83;;
19782;SDS011;10051;40.294;-3.754;2023-03-14T21:03:41;12.40;;;3.20;;
19782;SDS011;10051;40.294;-3.754;2023-03-14T21:06:10;10.02;;;3.10;;
19782;SDS011;10051;40.294;-3.754;2023-03-14T21:08:36;8.75;;;2.60;;
19782;SDS011;10051;40.294;-3.754;2023-03-14T21:11:06;11.52;;;3.83;;
19782;SDS011;10051;40.294;-3.754;2023-03-14T21:13:32;13.82;;;3.53;;
19782;SDS011;10051;40.294;-3.754;2023-03-14T21:15:58;14.90;;;3.45;;
19782;SDS011;10051;40.294;-3.754;2023-03-14T21:18:27;10.35;;;3.05;;
19782;SDS011;10051;40.294;-3.754;2023-03-14T21:20:54;8.55;;;2.45;;
19782;SDS011;10051;40.294;-3.754;2023-03-14T21:23:22;8.80;;;2.70;;
19782;SDS011;10051;40.294;-3.754;2023-03-14T21:25:51;9.00;;;2.33;;
19782;SDS011;10051;40.294;-3.754;2023-03-14T21:28:17;9.40;;;2.60;;
19782;SDS011;10051;40.294;-3.754;2023-03-14T21:30:43;11.73;;;2.97;;
19782;SDS011;10051;40.294;-3.754;2023-03-14T21:33:09;13.45;;;3.35;;
19782;SDS011;10051;40.294;-3.754;2023-03-14T21:35:35;10.10;;;3.10;;
19782;SDS011;10051;40.294;-3.754;2023-03-14T21:38:03;9.95;;;3.00;;
19782;SDS011;10051;40.294;-3.754;2023-03-14T21:40:29;8.85;;;2.60;;
19782;SDS011;10051;40.294;-3.754;2023-03-14T21:42:54;7.22;;;2.47;;
19782;SDS011;10051;40.294;-3.754;2023-03-14T21:45:24;8.85;;;2.65;;
19782;SDS011;10051;40.294;-3.754;2023-03-14T21:47:51;11.05;;;2.72;;
19782;SDS011;10051;40.294;-3.754;2023-03-14T21:50:18;8.80;;;2.70;;
19782;SDS011;10051;40.294;-3.754;2023-03-14T21:52:47;9.88;;;2.53;;
19782;SDS011;10051;40.294;-3.754;2023-03-14T21:55:20;8.50;;;2.40;;
19782;SDS011;10051;40.294;-3.754;2023-03-14T21:57:49;11.65;;;2.38;;
19782;SDS011;10051;40.294;-3.754;2023-03-14T22:00:17;10.75;;;2.40;;
19782;SDS011;10051;40.294;-3.754;2023-03-14T22:02:44;8.52;;;2.28;;
19782;SDS011;10051;40.294;-3.754;2023-03-14T22:05:12;7.20;;;2.17;;
19782;SDS011;10051;40.294;-3.754;2023-03-14T22:07:39;11.23;;;2.20;;
19782;SDS011;10051;40.294;-3.754;2023-03-14T22:10:07;9.35;;;2.15;;
19782;SDS011;10051;40.294;-3.754;2023-03-14T22:12:33;7.20;;;1.85;;
19782;SDS011;10051;40.294;-3.754;2023-03-14T22:14:59;8.35;;;2.40;;
19782;SDS011;10051;40.294;-3.754;2023-03-14T22:17:25;10.32;;;3.22;;
19782;SDS011;10051;40.294;-3.754;2023-03-14T22:19:51;12.48;;;5.20;;
19782;SDS011;10051;40.294;-3.754;2023-03-14T22:22:17;17.73;;;5.60;;
19782;SDS011;10051;40.294;-3.754;2023-03-14T22:24:43;18.15;;;5.05;;
19782;SDS011;10051;40.294;-3.754;2023-03-14T22:27:09;12.18;;;4.70;;
19782;SDS011;10051;40.294;-3.754;2023-03-14T22:29:34;10.77;;;3.83;;
19782;SDS011;10051;40.294;-3.754;2023-03-14T22:32:05;9.55;;;3.40;;
19782;SDS011;10051;40.294;-3.754;2023-03-14T22:34:32;8.05;;;3.08;;
19782;SDS011;10051;40.294;-3.754;2023-03-14T22:36:59;9.25;;;2.55;;
19782;SDS011;10051;40.294;-3.754;2023-03-14T22:39:26;8.40;;;2.05;;
19782;SDS011;10051;40.294;-3.754;2023-03-14T22:41:52;6.97;;;1.80;;
19782;SDS011;10051;40.294;-3.754;2023-03-14T22:44:18;6.90;;;1.75;;
19782;SDS011;10051;40.294;-3.754;2023-03-14T22:46:44;6.60;;;1.70;;
19782;SDS011;10051;40.294;-3.754;2023-03-14T22:49:10;5.30;;;1.63;;
19782;SDS011;10051;40.294;-3.754;2023-03-14T22:51:36;7.05;;;1.50;;
19782;SDS011;10051;40.294;-3.754;2023-03-14T22:54:02;8.43;;;1.65;;
19782;SDS011;10051;40.294;-3.754;2023-03-14T22:56:27;28.23;;;3.67;;
19782;SDS011;10051;40.294;-3.754;2023-03-14T22:58:55;4.82;;;1.40;;
19782;SDS011;10051;40.294;-3.754;2023-03-14T23:01:22;9.35;;;1.80;;
19782;SDS011;10051;40.294;-3.754;2023-03-14T23:03:47;8.88;;;1.70;;
19782;SDS011;10051;40.294;-3.754;2023-03-14T23:06:13;8.10;;;1.67;;
19782;SDS011;10051;40.294;-3.754;2023-03-14T23:08:42;9.68;;;1.77;;
19782;SDS011;10051;40.294;-3.754;2023-03-14T23:11:08;8.55;;;1.70;;
19782;SDS011;10051;40.294;-3.754;2023-03-14T23:13:37;10.48;;;2.15;;